createdAt,value
2023-04-02T06:59:51.371Z,11.34
2023-04-02T07:04:46.188Z,11.42
2023-04-02T07:07:13.710Z,11.71
2023-04-02T07:09:42.515Z,11.79
2023-04-02T07:12:14.225Z,11.60
2023-04-02T07:14:41.731Z,11.92
2023-04-02T07:17:18.069Z,11.90
2023-04-02T07:19:49.664Z,11.68
2023-04-02T07:22:19.447Z,12.03
2023-04-02T07:24:47.224Z,11.91
2023-04-02T07:27:15.583Z,11.93
2023-04-02T07:29:43.097Z,11.94
2023-04-02T07:32:14.173Z,12.03
2023-04-02T07:34:42.472Z,12.14
2023-04-02T07:37:14.876Z,12.28
2023-04-02T07:39:42.424Z,12.28
2023-04-02T07:42:10.281Z,12.19
2023-04-02T07:44:37.869Z,12.28
2023-04-02T07:47:05.632Z,12.32
2023-04-02T07:49:33.127Z,12.10
2023-04-02T07:52:00.926Z,12.11
2023-04-02T07:54:28.538Z,12.28
2023-04-02T07:56:56.519Z,12.21
2023-04-02T07:59:24.103Z,12.35
2023-04-02T08:01:53.659Z,12.11
2023-04-02T08:04:23.393Z,12.33
2023-04-02T08:06:52.966Z,12.41
2023-04-02T08:09:20.392Z,12.57
2023-04-02T08:11:47.838Z,12.76
2023-04-02T08:14:15.644Z,12.81
2023-04-02T08:16:53.745Z,12.57
2023-04-02T08:19:22.152Z,12.90
2023-04-02T08:21:52.082Z,12.99
2023-04-02T08:24:21.131Z,13.24
2023-04-02T08:26:51.569Z,13.07
2023-04-02T08:29:19.287Z,13.34
2023-04-02T08:31:46.736Z,13.33
2023-04-02T08:34:14.382Z,13.36
2023-04-02T08:36:45.668Z,13.26
2023-04-02T08:39:13.581Z,13.09
2023-04-02T08:42:44.922Z,13.14
2023-04-02T08:45:58.187Z,13.19
2023-04-02T08:48:25.732Z,12.72
2023-04-02T08:50:53.757Z,13.02
2023-04-02T08:53:32.360Z,12.91
2023-04-02T08:56:24.141Z,12.69
2023-04-02T08:58:57.788Z,12.75
2023-04-02T09:02:07.024Z,13.02
2023-04-02T09:04:37.067Z,12.65
2023-04-02T09:07:04.714Z,13.23
2023-04-02T09:09:39.276Z,12.89
2023-04-02T09:12:29.460Z,13.21
2023-04-02T09:15:34.317Z,13.32
2023-04-02T09:18:19.946Z,13.35
2023-04-02T09:20:49.475Z,13.42
2023-04-02T09:23:24.171Z,13.09
2023-04-02T09:26:04.268Z,13.50
2023-04-02T09:28:32.414Z,13.62
2023-04-02T09:31:37.870Z,13.63
2023-04-02T09:34:34.873Z,13.58
2023-04-02T09:37:25.698Z,14.04
2023-04-02T09:40:09.899Z,13.74
2023-04-02T09:42:38.288Z,14.02
2023-04-02T09:45:35.672Z,14.08
2023-04-02T09:48:14.932Z,14.11
2023-04-02T09:50:42.305Z,13.92
2023-04-02T09:53:33.850Z,13.97
2023-04-02T09:56:24.429Z,14.20
2023-04-02T09:59:16.195Z,14.44
2023-04-02T10:01:57.120Z,14.76
2023-04-02T10:04:49.881Z,14.58
2023-04-02T10:07:45.128Z,14.31
2023-04-02T10:10:46.844Z,14.55
2023-04-02T10:14:02.114Z,14.26
2023-04-02T10:17:11.822Z,14.34
2023-04-02T10:19:47.412Z,14.31
2023-04-02T10:22:22.487Z,14.68
2023-04-02T10:24:51.371Z,14.47
2023-04-02T10:28:34.598Z,14.93
2023-04-02T10:31:48.188Z,14.86
2023-04-02T10:34:54.392Z,15.38
2023-04-02T10:37:45.906Z,15.79
2023-04-02T10:40:47.985Z,15.84
2023-04-02T10:44:20.474Z,15.91
2023-04-02T10:47:32.317Z,16.35
2023-04-02T10:50:15.789Z,15.60
2023-04-02T10:53:45.729Z,15.61
2023-04-02T10:56:14.644Z,14.74
2023-04-02T10:59:26.233Z,14.46
2023-04-02T11:01:58.817Z,14.68
2023-04-02T11:04:42.423Z,14.47
2023-04-02T11:07:22.684Z,14.68
2023-04-02T11:09:56.474Z,14.69
2023-04-02T11:12:49.671Z,14.63
2023-04-02T11:15:20.498Z,14.31
2023-04-02T11:17:48.637Z,14.11
2023-04-02T11:21:03.361Z,14.64
2023-04-02T11:24:01.346Z,14.29
2023-04-02T11:26:47.558Z,14.69
2023-04-02T11:29:29.160Z,13.96
2023-04-02T11:32:25.582Z,14.59
2023-04-02T11:35:06.632Z,14.81
2023-04-02T11:37:45.734Z,15.28
2023-04-02T11:40:16.043Z,15.63
2023-04-02T11:42:50.523Z,16.69
2023-04-02T11:45:52.852Z,17.35
2023-04-02T11:48:20.682Z,17.72
2023-04-02T11:50:48.203Z,17.36
2023-04-02T11:53:15.734Z,16.75
2023-04-02T11:56:06.563Z,15.81
2023-04-02T11:59:30.116Z,15.60
2023-04-02T12:02:28.763Z,15.45
2023-04-02T12:05:54.813Z,16.06
2023-04-02T12:09:23.765Z,17.15
2023-04-02T12:12:00.040Z,17.76
2023-04-02T12:14:51.947Z,16.43
2023-04-02T12:17:36.052Z,17.22
2023-04-02T12:20:09.928Z,18.09
2023-04-02T12:22:53.527Z,17.47
2023-04-02T12:25:40.492Z,17.21
2023-04-02T12:28:11.191Z,16.90
2023-04-02T12:30:40.529Z,16.57
2023-04-02T12:33:23.199Z,17.03
2023-04-02T12:36:02.115Z,16.35
2023-04-02T12:38:48.323Z,16.50
2023-04-02T12:41:33.554Z,17.25
2023-04-02T12:44:15.616Z,16.75
2023-04-02T12:46:45.510Z,17.89
2023-04-02T12:49:45.079Z,17.90
2023-04-02T12:52:20.774Z,18.19
2023-04-02T12:55:03.807Z,18.27
2023-04-02T12:57:34.160Z,17.98
2023-04-02T13:00:21.377Z,16.78
2023-04-02T13:03:05.982Z,17.30
2023-04-02T13:05:56.522Z,17.08
2023-04-02T13:08:33.198Z,16.81
2023-04-02T13:11:05.030Z,17.29
2023-04-02T13:13:43.694Z,17.27
2023-04-02T13:16:20.118Z,17.02
2023-04-02T13:18:50.949Z,15.97
2023-04-02T13:21:21.315Z,15.85
2023-04-02T13:23:48.759Z,16.19
2023-04-02T13:26:28.389Z,16.35
2023-04-02T13:29:36.682Z,16.18
2023-04-02T13:32:13.555Z,16.54
2023-04-02T13:34:41.025Z,16.19
2023-04-02T13:37:13.415Z,16.55
2023-04-02T13:39:40.929Z,16.74
2023-04-02T13:42:11.784Z,16.62
2023-04-02T13:44:39.296Z,16.28
2023-04-02T13:47:07.531Z,16.61
2023-04-02T13:49:35.119Z,16.44
2023-04-02T13:52:05.178Z,16.55
2023-04-02T13:54:51.144Z,16.26
2023-04-02T13:57:19.129Z,16.23
2023-04-02T13:59:46.832Z,16.14
2023-04-02T14:02:23.806Z,15.67
2023-04-02T14:05:37.160Z,15.66
2023-04-02T14:08:48.582Z,15.84
2023-04-02T14:11:59.348Z,16.07
2023-04-02T14:15:13.511Z,15.88
2023-04-02T14:18:33.023Z,15.55
2023-04-02T14:22:09.563Z,16.09
2023-04-02T14:25:24.233Z,16.35
2023-04-02T14:28:15.908Z,16.48
2023-04-02T14:31:12.974Z,15.79
2023-04-02T14:34:34.516Z,16.27
2023-04-02T14:37:28.225Z,16.41
2023-04-02T14:41:04.480Z,16.17
2023-04-02T14:43:52.352Z,15.53
2023-04-02T14:46:24.767Z,15.57
2023-04-02T14:49:09.216Z,15.40
2023-04-02T14:52:14.200Z,15.41
2023-04-02T14:55:04.357Z,15.65
2023-04-02T14:57:49.159Z,16.06
2023-04-02T15:00:45.842Z,16.27
2023-04-02T15:03:24.451Z,16.31
2023-04-02T15:06:09.584Z,16.29
2023-04-02T15:09:15.037Z,16.86
2023-04-02T15:11:57.219Z,17.45
2023-04-02T15:14:51.163Z,17.95
2023-04-02T15:17:21.448Z,17.92
2023-04-02T15:19:49.732Z,18.46
2023-04-02T15:22:51.376Z,17.87
2023-04-02T15:25:55.528Z,18.85
2023-04-02T15:28:40.965Z,19.01
2023-04-02T15:31:15.013Z,19.32
2023-04-02T15:33:46.089Z,18.31
2023-04-02T15:36:47.904Z,18.94
2023-04-02T15:40:02.958Z,19.34
2023-04-02T15:42:42.193Z,18.83
2023-04-02T15:45:12.257Z,19.42
2023-04-02T15:48:42.964Z,19.70
2023-04-02T15:51:26.505Z,19.16
2023-04-02T15:54:31.471Z,19.48
2023-04-02T15:58:08.656Z,19.69
2023-04-02T16:01:01.091Z,20.17
2023-04-02T16:04:19.657Z,19.53
2023-04-02T16:07:23.406Z,18.97
2023-04-02T16:10:41.121Z,19.48
2023-04-02T16:13:39.230Z,18.97
2023-04-02T16:16:42.500Z,18.84
2023-04-02T16:19:51.944Z,17.87
2023-04-02T16:22:30.208Z,18.07
2023-04-02T16:25:19.361Z,18.60
2023-04-02T16:28:39.159Z,18.40
2023-04-02T16:31:26.232Z,18.92
2023-04-02T16:34:47.275Z,17.68
2023-04-02T16:38:07.850Z,17.29
2023-04-02T16:41:37.774Z,17.39
2023-04-02T16:45:03.081Z,17.82
2023-04-02T16:47:47.117Z,17.61
2023-04-02T16:50:45.796Z,17.00
2023-04-02T16:54:09.168Z,16.96
2023-04-02T16:57:06.932Z,16.67
2023-04-02T17:00:13.897Z,16.52
2023-04-02T17:03:58.174Z,16.31
2023-04-02T17:07:30.545Z,15.98
2023-04-02T17:10:30.396Z,15.95
2023-04-02T17:13:46.216Z,15.89
2023-04-02T17:16:33.107Z,15.71
2023-04-02T17:19:02.712Z,15.67
2023-04-02T17:21:32.490Z,15.48
2023-04-02T17:24:28.492Z,15.51
2023-04-02T17:27:32.996Z,15.01
2023-04-02T17:30:45.010Z,16.02
2023-04-02T17:33:18.239Z,15.57
2023-04-02T17:36:32.960Z,15.62
2023-04-02T17:39:53.654Z,15.05
2023-04-02T17:42:58.512Z,15.33
2023-04-02T17:45:57.383Z,15.38
2023-04-02T17:48:47.293Z,15.62
2023-04-02T17:51:48.948Z,15.20
2023-04-02T17:54:51.808Z,15.13
2023-04-02T17:58:05.664Z,15.25
2023-04-02T18:01:07.134Z,15.26
2023-04-02T18:04:16.912Z,15.26
2023-04-02T18:07:12.279Z,15.30
2023-04-02T18:09:54.416Z,15.29
2023-04-02T18:13:36.665Z,15.29
2023-04-02T18:17:21.269Z,15.24
2023-04-02T18:20:09.121Z,15.22
2023-04-02T18:23:09.052Z,14.48
2023-04-02T18:26:19.296Z,14.47
2023-04-02T18:29:41.757Z,14.65
2023-04-02T18:33:07.077Z,14.81
2023-04-02T18:36:02.598Z,14.76
2023-04-02T18:39:06.482Z,14.43
2023-04-02T18:42:13.510Z,14.67
2023-04-02T18:45:21.042Z,14.63
2023-04-02T18:48:41.129Z,14.75
2023-04-02T18:51:31.989Z,14.51
2023-04-02T18:54:56.416Z,14.12
2023-04-02T18:57:34.243Z,14.42
2023-04-02T19:00:29.240Z,14.46
2023-04-02T19:03:52.604Z,14.08
2023-04-02T19:06:35.057Z,14.18
2023-04-02T19:09:20.741Z,14.57
2023-04-02T19:11:49.059Z,14.30
2023-04-02T19:14:23.308Z,14.38
2023-04-02T19:17:44.221Z,14.18
2023-04-02T19:20:11.509Z,14.28
2023-04-02T19:23:42.750Z,14.31
2023-04-02T19:26:19.431Z,14.50
2023-04-02T19:29:04.309Z,14.34
2023-04-02T19:31:47.129Z,14.35
2023-04-02T19:35:03.093Z,13.78
2023-04-02T19:37:55.947Z,14.28
2023-04-02T19:40:54.524Z,14.26
2023-04-02T19:43:22.054Z,14.17
2023-04-02T19:45:50.350Z,14.16
2023-04-02T19:48:34.824Z,14.47
2023-04-02T19:51:02.405Z,14.29
2023-04-02T19:53:29.924Z,14.15
2023-04-02T19:55:57.672Z,14.19
2023-04-02T19:58:36.407Z,14.11
2023-04-02T20:01:04.354Z,14.11
2023-04-02T20:03:32.599Z,13.91
2023-04-02T20:06:00.247Z,13.79
2023-04-02T20:08:28.733Z,13.73
2023-04-02T20:10:58.669Z,13.77
2023-04-02T20:13:26.282Z,13.77
2023-04-02T20:15:54.078Z,13.98
2023-04-02T20:18:21.692Z,14.15
2023-04-02T20:20:49.768Z,14.03
2023-04-02T20:23:18.017Z,13.94
2023-04-02T20:25:57.174Z,13.73
2023-04-02T20:28:27.750Z,13.82
2023-04-02T20:31:05.804Z,13.78
2023-04-02T20:33:33.535Z,13.77
2023-04-02T20:36:15.905Z,13.62
2023-04-02T20:38:45.934Z,13.74
2023-04-02T20:41:16.181Z,13.50
2023-04-02T20:43:43.916Z,13.43
2023-04-02T20:46:12.952Z,13.34
2023-04-02T20:48:41.423Z,13.39
2023-04-02T20:51:14.193Z,13.32
2023-04-02T20:53:42.266Z,13.58
2023-04-02T20:56:17.024Z,13.25
2023-04-02T20:58:44.904Z,13.49
2023-04-02T21:01:27.493Z,13.30
2023-04-02T21:04:04.788Z,13.14
2023-04-02T21:06:38.068Z,12.37
2023-04-02T21:09:14.830Z,12.81
2023-04-02T21:11:42.984Z,12.57
2023-04-02T21:14:11.587Z,12.35
2023-04-02T21:16:41.835Z,12.66
2023-04-02T21:19:10.864Z,12.22
2023-04-02T21:21:39.679Z,12.72
2023-04-02T21:24:09.649Z,12.98
2023-04-02T21:26:41.624Z,12.74
2023-04-02T21:29:11.816Z,12.95
2023-04-02T21:31:42.057Z,12.84
2023-04-02T21:34:15.808Z,12.74
2023-04-02T21:36:50.503Z,12.22
2023-04-02T21:39:24.293Z,12.44
2023-04-02T21:41:53.627Z,12.58
2023-04-02T21:44:24.438Z,12.63
2023-04-02T21:46:54.114Z,12.50
2023-04-02T21:49:23.328Z,12.61
2023-04-02T21:51:51.987Z,12.53
2023-04-02T21:54:20.220Z,12.19
2023-04-02T21:56:48.923Z,12.11
